sensor_id;sensor_type;location;lat;lon;timestamp;pressure;altitude;pressure_sealevel;temperature;humidity
42003;BME280;27693;50.506;30.832;2024-01-16T00:00:28;97768.30;;;-1.87;88.30
42003;BME280;27693;50.506;30.832;2024-01-16T00:01:31;97775.07;;;-1.86;88.17
42003;BME280;27693;50.506;30.832;2024-01-16T00:02:33;97776.80;;;-1.87;88.22
42003;BME280;27693;50.506;30.832;2024-01-16T00:03:37;97772.52;;;-1.86;88.37
42003;BME280;27693;50.506;30.832;2024-01-16T00:04:40;97779.98;;;-1.79;89.66
42003;BME280;27693;50.506;30.832;2024-01-16T00:05:43;97798.44;;;-1.70;90.30
42003;BME280;27693;50.506;30.832;2024-01-16T00:06:46;97793.33;;;-1.70;90.08
42003;BME280;27693;50.506;30.832;2024-01-16T00:07:50;97802.61;;;-1.68;90.36
42003;BME280;27693;50.506;30.832;2024-01-16T00:08:53;97795.11;;;-1.72;89.93
42003;BME280;27693;50.506;30.832;2024-01-16T00:09:55;97791.41;;;-1.62;90.75
42003;BME280;27693;50.506;30.832;2024-01-16T00:10:58;97792.75;;;-1.49;91.75
42003;BME280;27693;50.506;30.832;2024-01-16T00:12:02;97795.05;;;-1.39;92.56
42003;BME280;27693;50.506;30.832;2024-01-16T00:13:05;97783.61;;;-1.26;92.35
42003;BME280;27693;50.506;30.832;2024-01-16T00:14:09;97788.34;;;-1.14;91.70
42003;BME280;27693;50.506;30.832;2024-01-16T00:15:12;97782.98;;;-1.04;91.28
42003;BME280;27693;50.506;30.832;2024-01-16T00:16:15;97787.98;;;-1.01;90.88
42003;BME280;27693;50.506;30.832;2024-01-16T00:17:20;97786.09;;;-0.94;91.06
42003;BME280;27693;50.506;30.832;2024-01-16T00:18:23;97775.91;;;-0.96;90.55
42003;BME280;27693;50.506;30.832;2024-01-16T00:19:25;97773.33;;;-0.94;90.36
42003;BME280;27693;50.506;30.832;2024-01-16T00:20:28;97773.88;;;-0.85;90.27
42003;BME280;27693;50.506;30.832;2024-01-16T00:21:30;97769.52;;;-0.81;90.13
42003;BME280;27693;50.506;30.832;2024-01-16T00:22:33;97759.84;;;-0.71;89.69
42003;BME280;27693;50.506;30.832;2024-01-16T00:23:35;97758.25;;;-0.75;89.20
42003;BME280;27693;50.506;30.832;2024-01-16T00:24:37;97759.84;;;-0.71;89.11
42003;BME280;27693;50.506;30.832;2024-01-16T00:25:40;97762.26;;;-0.67;88.85
42003;BME280;27693;50.506;30.832;2024-01-16T00:26:43;97764.67;;;-0.62;89.09
42003;BME280;27693;50.506;30.832;2024-01-16T00:27:46;97766.70;;;-0.73;88.31
42003;BME280;27693;50.506;30.832;2024-01-16T00:28:50;97777.03;;;-0.76;89.32
42003;BME280;27693;50.506;30.832;2024-01-16T00:29:52;97782.22;;;-0.79;89.62
42003;BME280;27693;50.506;30.832;2024-01-16T00:30:55;97776.32;;;-0.82;89.47
42003;BME280;27693;50.506;30.832;2024-01-16T00:31:57;97777.23;;;-0.83;89.31
42003;BME280;27693;50.506;30.832;2024-01-16T00:33:00;97777.31;;;-0.86;88.96
42003;BME280;27693;50.506;30.832;2024-01-16T00:34:03;97780.73;;;-0.87;88.90
42003;BME280;27693;50.506;30.832;2024-01-16T00:35:06;97765.23;;;-0.81;89.21
42003;BME280;27693;50.506;30.832;2024-01-16T00:36:10;97769.27;;;-0.73;89.63
42003;BME280;27693;50.506;30.832;2024-01-16T00:37:12;97763.96;;;-0.67;89.33
42003;BME280;27693;50.506;30.832;2024-01-16T00:38:15;97759.84;;;-0.71;89.01
42003;BME280;27693;50.506;30.832;2024-01-16T00:39:17;97776.19;;;-0.77;88.84
42003;BME280;27693;50.506;30.832;2024-01-16T00:40:20;97772.75;;;-0.76;89.42
42003;BME280;27693;50.506;30.832;2024-01-16T00:41:23;97778.88;;;-0.82;88.87
42003;BME280;27693;50.506;30.832;2024-01-16T00:42:27;97772.12;;;-0.83;89.29
42003;BME280;27693;50.506;30.832;2024-01-16T00:43:31;97767.17;;;-0.89;88.11
42003;BME280;27693;50.506;30.832;2024-01-16T00:44:35;97764.12;;;-1.00;88.19
42003;BME280;27693;50.506;30.832;2024-01-16T00:45:38;97757.34;;;-1.01;87.58
42003;BME280;27693;50.506;30.832;2024-01-16T00:46:42;97756.97;;;-0.89;88.15
42003;BME280;27693;50.506;30.832;2024-01-16T00:47:46;97746.39;;;-0.76;88.78
42003;BME280;27693;50.506;30.832;2024-01-16T00:48:48;97754.59;;;-0.67;89.28
42003;BME280;27693;50.506;30.832;2024-01-16T00:49:51;97750.91;;;-0.58;89.16
42003;BME280;27693;50.506;30.832;2024-01-16T00:50:54;97751.58;;;-0.53;88.81
42003;BME280;27693;50.506;30.832;2024-01-16T00:51:56;97750.17;;;-0.61;87.56
42003;BME280;27693;50.506;30.832;2024-01-16T00:52:59;97750.17;;;-0.61;87.56
42003;BME280;27693;50.506;30.832;2024-01-16T00:54:01;97760.27;;;-0.58;88.83
42003;BME280;27693;50.506;30.832;2024-01-16T00:55:05;97763.08;;;-0.66;87.97
42003;BME280;27693;50.506;30.832;2024-01-16T00:56:07;97764.95;;;-0.71;87.25
42003;BME280;27693;50.506;30.832;2024-01-16T00:57:11;97769.06;;;-0.67;87.91
42003;BME280;27693;50.506;30.832;2024-01-16T00:58:14;97761.20;;;-0.61;88.49
42003;BME280;27693;50.506;30.832;2024-01-16T00:59:17;97777.19;;;-0.54;88.07
42003;BME280;27693;50.506;30.832;2024-01-16T01:00:19;97760.04;;;-0.51;88.17
42003;BME280;27693;50.506;30.832;2024-01-16T01:01:22;97763.48;;;-0.52;88.18
42003;BME280;27693;50.506;30.832;2024-01-16T01:02:25;97767.77;;;-0.52;88.48
42003;BME280;27693;50.506;30.832;2024-01-16T01:03:30;97769.58;;;-0.56;88.32
42003;BME280;27693;50.506;30.832;2024-01-16T01:04:33;97767.31;;;-0.65;87.55
42003;BME280;27693;50.506;30.832;2024-01-16T01:05:36;97759.59;;;-0.63;87.41
42003;BME280;27693;50.506;30.832;2024-01-16T01:06:38;97756.09;;;-0.61;87.58
42003;BME280;27693;50.506;30.832;2024-01-16T01:07:41;97748.04;;;-0.75;87.59
42003;BME280;27693;50.506;30.832;2024-01-16T01:08:43;97760.23;;;-0.84;87.23
42003;BME280;27693;50.506;30.832;2024-01-16T01:09:46;97764.48;;;-0.84;87.21
42003;BME280;27693;50.506;30.832;2024-01-16T01:10:48;97755.27;;;-0.88;87.67
42003;BME280;27693;50.506;30.832;2024-01-16T01:11:51;97754.85;;;-1.03;87.05
42003;BME280;27693;50.506;30.832;2024-01-16T01:12:53;97758.34;;;-1.05;87.32
42003;BME280;27693;50.506;30.832;2024-01-16T01:13:56;97756.61;;;-1.05;88.08
42003;BME280;27693;50.506;30.832;2024-01-16T01:14:59;97759.22;;;-1.06;87.54
42003;BME280;27693;50.506;30.832;2024-01-16T01:16:01;97755.59;;;-0.99;88.26
42003;BME280;27693;50.506;30.832;2024-01-16T01:17:04;97750.38;;;-0.96;88.95
42003;BME280;27693;50.506;30.832;2024-01-16T01:18:07;97756.20;;;-0.91;89.41
42003;BME280;27693;50.506;30.832;2024-01-16T01:19:10;97751.72;;;-0.84;90.88
42003;BME280;27693;50.506;30.832;2024-01-16T01:20:13;97752.37;;;-0.77;91.75
42003;BME280;27693;50.506;30.832;2024-01-16T01:21:16;97752.13;;;-0.70;92.03
42003;BME280;27693;50.506;30.832;2024-01-16T01:22:19;97752.27;;;-0.74;90.96
42003;BME280;27693;50.506;30.832;2024-01-16T01:23:22;97747.22;;;-0.76;90.61
42003;BME280;27693;50.506;30.832;2024-01-16T01:24:25;97752.44;;;-0.79;90.39
42003;BME280;27693;50.506;30.832;2024-01-16T01:25:27;97751.86;;;-0.89;89.23
42003;BME280;27693;50.506;30.832;2024-01-16T01:26:30;97744.80;;;-0.81;90.75
42003;BME280;27693;50.506;30.832;2024-01-16T01:27:33;97748.81;;;-1.00;88.66
42003;BME280;27693;50.506;30.832;2024-01-16T01:28:36;97746.40;;;-1.05;87.94
42003;BME280;27693;50.506;30.832;2024-01-16T01:29:40;97744.59;;;-1.01;88.62
42003;BME280;27693;50.506;30.832;2024-01-16T01:30:44;97740.00;;;-0.90;89.81
42003;BME280;27693;50.506;30.832;2024-01-16T01:31:48;97750.10;;;-0.87;90.44
42003;BME280;27693;50.506;30.832;2024-01-16T01:32:50;97746.86;;;-0.92;89.45
42003;BME280;27693;50.506;30.832;2024-01-16T01:33:53;97754.52;;;-0.92;89.88
42003;BME280;27693;50.506;30.832;2024-01-16T01:34:56;97755.89;;;-0.82;90.14
42003;BME280;27693;50.506;30.832;2024-01-16T01:35:58;97761.05;;;-0.83;89.68
42003;BME280;27693;50.506;30.832;2024-01-16T01:37:03;97760.59;;;-0.96;88.83
42003;BME280;27693;50.506;30.832;2024-01-16T01:38:05;97765.01;;;-1.01;89.82
42003;BME280;27693;50.506;30.832;2024-01-16T01:39:09;97765.01;;;-1.01;89.82
42003;BME280;27693;50.506;30.832;2024-01-16T01:40:13;97764.05;;;-0.97;90.70
42003;BME280;27693;50.506;30.832;2024-01-16T01:41:19;97760.51;;;-0.93;90.65
42003;BME280;27693;50.506;30.832;2024-01-16T01:42:21;97762.19;;;-0.92;90.48
42003;BME280;27693;50.506;30.832;2024-01-16T01:43:24;97760.02;;;-1.04;89.42
42003;BME280;27693;50.506;30.832;2024-01-16T01:44:27;97758.28;;;-1.04;89.84
42003;BME280;27693;50.506;30.832;2024-01-16T01:45:30;97762.45;;;-1.01;90.21
42003;BME280;27693;50.506;30.832;2024-01-16T01:46:33;97767.75;;;-1.07;89.13
42003;BME280;27693;50.506;30.832;2024-01-16T01:47:38;97772.77;;;-1.04;90.61
42003;BME280;27693;50.506;30.832;2024-01-16T01:48:42;97769.16;;;-0.97;91.02
42003;BME280;27693;50.506;30.832;2024-01-16T01:49:45;97780.32;;;-1.01;90.52
42003;BME280;27693;50.506;30.832;2024-01-16T01:50:48;97783.32;;;-1.17;89.62
42003;BME280;27693;50.506;30.832;2024-01-16T01:51:51;97781.75;;;-1.21;89.57
42003;BME280;27693;50.506;30.832;2024-01-16T01:52:54;97779.45;;;-1.30;89.59
42003;BME280;27693;50.506;30.832;2024-01-16T01:53:57;97785.47;;;-1.31;89.38
42003;BME280;27693;50.506;30.832;2024-01-16T01:55:01;97785.47;;;-1.31;89.44
42003;BME280;27693;50.506;30.832;2024-01-16T01:57:19;97786.16;;;-1.26;89.70
42003;BME280;27693;50.506;30.832;2024-01-16T01:58:23;97792.75;;;-1.49;89.48
42003;BME280;27693;50.506;30.832;2024-01-16T01:59:25;97799.45;;;-1.45;90.48
42003;BME280;27693;50.506;30.832;2024-01-16T02:00:28;97808.75;;;-1.43;90.53
42003;BME280;27693;50.506;30.832;2024-01-16T02:01:31;97809.73;;;-1.48;90.81
42003;BME280;27693;50.506;30.832;2024-01-16T02:02:35;97807.52;;;-1.60;90.54
42003;BME280;27693;50.506;30.832;2024-01-16T02:03:45;97809.12;;;-1.89;90.41
42003;BME280;27693;50.506;30.832;2024-01-16T02:04:48;97803.55;;;-2.03;90.58
42003;BME280;27693;50.506;30.832;2024-01-16T02:05:51;97795.84;;;-2.00;91.69
42003;BME280;27693;50.506;30.832;2024-01-16T02:06:54;97795.84;;;-2.00;91.69
42003;BME280;27693;50.506;30.832;2024-01-16T02:07:59;97792.38;;;-1.98;91.77
42003;BME280;27693;50.506;30.832;2024-01-16T02:09:02;97797.42;;;-1.96;91.69
42003;BME280;27693;50.506;30.832;2024-01-16T02:10:08;97796.59;;;-1.97;91.60
42003;BME280;27693;50.506;30.832;2024-01-16T02:11:11;97801.00;;;-2.03;91.35
42003;BME280;27693;50.506;30.832;2024-01-16T02:12:14;97795.03;;;-2.02;91.71
42003;BME280;27693;50.506;30.832;2024-01-16T02:13:19;97802.68;;;-2.02;91.93
42003;BME280;27693;50.506;30.832;2024-01-16T02:14:23;97794.32;;;-2.07;91.67
42003;BME280;27693;50.506;30.832;2024-01-16T02:15:26;97778.18;;;-2.08;91.94
42003;BME280;27693;50.506;30.832;2024-01-16T02:16:34;97784.20;;;-2.11;92.24
42003;BME280;27693;50.506;30.832;2024-01-16T02:17:34;97777.42;;;-2.12;92.02
42003;BME280;27693;50.506;30.832;2024-01-16T02:18:36;97780.61;;;-2.03;92.59
42003;BME280;27693;50.506;30.832;2024-01-16T02:19:39;97777.03;;;-1.96;92.79
42003;BME280;27693;50.506;30.832;2024-01-16T02:20:42;97775.23;;;-1.93;92.79
42003;BME280;27693;50.506;30.832;2024-01-16T02:21:48;97788.73;;;-1.89;92.79
42003;BME280;27693;50.506;30.832;2024-01-16T02:22:54;97783.47;;;-1.83;92.73
42003;BME280;27693;50.506;30.832;2024-01-16T02:23:58;97785.15;;;-1.82;92.09
42003;BME280;27693;50.506;30.832;2024-01-16T02:25:00;97778.59;;;-1.90;91.27
42003;BME280;27693;50.506;30.832;2024-01-16T02:26:04;97777.73;;;-1.91;92.37
42003;BME280;27693;50.506;30.832;2024-01-16T02:27:07;97777.73;;;-1.91;92.37
42003;BME280;27693;50.506;30.832;2024-01-16T02:28:09;97777.72;;;-1.89;92.34
42003;BME280;27693;50.506;30.832;2024-01-16T02:29:12;97774.88;;;-1.79;92.57
42003;BME280;27693;50.506;30.832;2024-01-16T02:30:16;97771.43;;;-1.78;92.26
42003;BME280;27693;50.506;30.832;2024-01-16T02:31:18;97776.46;;;-1.74;92.51
42003;BME280;27693;50.506;30.832;2024-01-16T02:32:21;97767.81;;;-1.69;92.47
42003;BME280;27693;50.506;30.832;2024-01-16T02:33:24;97773.11;;;-1.77;91.42
42003;BME280;27693;50.506;30.832;2024-01-16T02:34:27;97775.66;;;-1.77;91.45
42003;BME280;27693;50.506;30.832;2024-01-16T02:35:29;97773.98;;;-1.78;91.29
42003;BME280;27693;50.506;30.832;2024-01-16T02:36:32;97770.67;;;-1.81;91.34
42003;BME280;27693;50.506;30.832;2024-01-16T02:37:35;97771.53;;;-1.81;91.45
42003;BME280;27693;50.506;30.832;2024-01-16T02:38:37;97776.80;;;-1.87;90.78
42003;BME280;27693;50.506;30.832;2024-01-16T02:39:40;97778.00;;;-2.00;89.95
42003;BME280;27693;50.506;30.832;2024-01-16T02:40:42;97773.78;;;-2.01;90.49
42003;BME280;27693;50.506;30.832;2024-01-16T02:41:45;97772.85;;;-1.99;91.09
42003;BME280;27693;50.506;30.832;2024-01-16T02:42:47;97782.29;;;-2.02;90.31
42003;BME280;27693;50.506;30.832;2024-01-16T02:43:50;97779.80;;;-2.04;90.42
42003;BME280;27693;50.506;30.832;2024-01-16T02:44:54;97777.95;;;-1.99;91.60
42003;BME280;27693;50.506;30.832;2024-01-16T02:45:59;97777.95;;;-1.99;91.60
42003;BME280;27693;50.506;30.832;2024-01-16T02:47:04;97782.24;;;-2.01;90.42
42003;BME280;27693;50.506;30.832;2024-01-16T02:48:08;97785.55;;;-1.97;90.86
42003;BME280;27693;50.506;30.832;2024-01-16T02:49:12;97779.70;;;-2.01;90.74
42003;BME280;27693;50.506;30.832;2024-01-16T02:50:15;97785.71;;;-2.03;90.25
42003;BME280;27693;50.506;30.832;2024-01-16T02:51:18;97785.71;;;-2.03;89.76
42003;BME280;27693;50.506;30.832;2024-01-16T02:52:20;97794.98;;;-2.01;89.92
42003;BME280;27693;50.506;30.832;2024-01-16T02:53:22;97792.55;;;-2.05;89.71
42003;BME280;27693;50.506;30.832;2024-01-16T02:54:24;97786.47;;;-2.00;90.83
42003;BME280;27693;50.506;30.832;2024-01-16T02:55:27;97797.58;;;-2.02;90.31
42003;BME280;27693;50.506;30.832;2024-01-16T02:56:29;97790.64;;;-1.97;90.56
42003;BME280;27693;50.506;30.832;2024-01-16T02:57:32;97794.76;;;-1.91;90.88
42003;BME280;27693;50.506;30.832;2024-01-16T02:58:36;97797.26;;;-1.90;91.10
42003;BME280;27693;50.506;30.832;2024-01-16T02:59:39;97792.48;;;-2.02;90.10
42003;BME280;27693;50.506;30.832;2024-01-16T03:00:41;97781.42;;;-2.01;90.10
42003;BME280;27693;50.506;30.832;2024-01-16T03:01:44;97789.70;;;-1.93;90.73
42003;BME280;27693;50.506;30.832;2024-01-16T03:02:46;97783.80;;;-1.95;90.16
42003;BME280;27693;50.506;30.832;2024-01-16T03:03:52;97778.70;;;-1.95;90.29
42003;BME280;27693;50.506;30.832;2024-01-16T03:04:55;97786.56;;;-2.03;89.63
42003;BME280;27693;50.506;30.832;2024-01-16T03:05:57;97785.59;;;-1.99;89.92
42003;BME280;27693;50.506;30.832;2024-01-16T03:07:01;97783.05;;;-1.99;89.93
42003;BME280;27693;50.506;30.832;2024-01-16T03:08:05;97783.00;;;-1.97;90.38
42003;BME280;27693;50.506;30.832;2024-01-16T03:09:08;97787.34;;;-2.01;90.65
42003;BME280;27693;50.506;30.832;2024-01-16T03:10:12;97778.94;;;-2.04;90.53
42003;BME280;27693;50.506;30.832;2024-01-16T03:11:15;97781.64;;;-2.11;90.36
42003;BME280;27693;50.506;30.832;2024-01-16T03:12:17;97785.80;;;-2.06;90.54
42003;BME280;27693;50.506;30.832;2024-01-16T03:13:20;97786.08;;;-2.17;90.21
42003;BME280;27693;50.506;30.832;2024-01-16T03:14:23;97782.84;;;-2.24;90.35
42003;BME280;27693;50.506;30.832;2024-01-16T03:15:25;97787.76;;;-2.16;91.02
42003;BME280;27693;50.506;30.832;2024-01-16T03:16:27;97789.61;;;-2.23;90.63
42003;BME280;27693;50.506;30.832;2024-01-16T03:17:30;97786.25;;;-2.25;90.54
42003;BME280;27693;50.506;30.832;2024-01-16T03:18:33;97785.59;;;-2.32;90.46
42003;BME280;27693;50.506;30.832;2024-01-16T03:19:37;97789.83;;;-2.32;90.75
42003;BME280;27693;50.506;30.832;2024-01-16T03:20:39;97797.56;;;-2.35;91.03
42003;BME280;27693;50.506;30.832;2024-01-16T03:21:41;97798.34;;;-2.33;91.31
42003;BME280;27693;50.506;30.832;2024-01-16T03:22:46;97800.78;;;-2.29;91.89
42003;BME280;27693;50.506;30.832;2024-01-16T03:23:49;97802.45;;;-2.28;91.43
42003;BME280;27693;50.506;30.832;2024-01-16T03:24:52;97794.77;;;-2.26;91.92
42003;BME280;27693;50.506;30.832;2024-01-16T03:25:54;97808.62;;;-2.36;91.35
42003;BME280;27693;50.506;30.832;2024-01-16T03:26:57;97807.03;;;-2.41;91.53
42003;BME280;27693;50.506;30.832;2024-01-16T03:28:00;97798.58;;;-2.43;91.54
42003;BME280;27693;50.506;30.832;2024-01-16T03:29:02;97804.73;;;-2.51;91.57
42003;BME280;27693;50.506;30.832;2024-01-16T03:30:06;97802.20;;;-2.53;91.96
42003;BME280;27693;50.506;30.832;2024-01-16T03:31:14;97806.58;;;-2.58;91.90
42003;BME280;27693;50.506;30.832;2024-01-16T03:32:19;97800.62;;;-2.57;92.17
42003;BME280;27693;50.506;30.832;2024-01-16T03:33:22;97799.70;;;-2.54;92.62
42003;BME280;27693;50.506;30.832;2024-01-16T03:34:24;97802.15;;;-2.50;92.68
42003;BME280;27693;50.506;30.832;2024-01-16T03:35:26;97810.55;;;-2.46;93.03
42003;BME280;27693;50.506;30.832;2024-01-16T03:36:29;97810.45;;;-2.42;92.88
42003;BME280;27693;50.506;30.832;2024-01-16T03:37:33;97811.42;;;-2.47;92.37
42003;BME280;27693;50.506;30.832;2024-01-16T03:38:36;97806.37;;;-2.49;92.43
42003;BME280;27693;50.506;30.832;2024-01-16T03:39:42;97808.83;;;-2.46;92.54
42003;BME280;27693;50.506;30.832;2024-01-16T03:40:46;97812.03;;;-2.37;92.84
42003;BME280;27693;50.506;30.832;2024-01-16T03:41:50;97799.25;;;-2.36;92.88
42003;BME280;27693;50.506;30.832;2024-01-16T03:42:52;97796.69;;;-2.34;92.60
42003;BME280;27693;50.506;30.832;2024-01-16T03:43:55;97800.27;;;-2.42;92.28
42003;BME280;27693;50.506;30.832;2024-01-16T03:44:58;97799.30;;;-2.37;92.58
42003;BME280;27693;50.506;30.832;2024-01-16T03:46:01;97793.25;;;-2.33;92.74
42003;BME280;27693;50.506;30.832;2024-01-16T03:47:03;97796.69;;;-2.34;92.33
42003;BME280;27693;50.506;30.832;2024-01-16T03:48:06;97790.68;;;-2.32;92.99
42003;BME280;27693;50.506;30.832;2024-01-16T03:49:09;97793.25;;;-2.33;92.38
42003;BME280;27693;50.506;30.832;2024-01-16T03:50:12;97795.69;;;-2.29;92.42
42003;BME280;27693;50.506;30.832;2024-01-16T03:51:14;97789.83;;;-2.32;92.01
42003;BME280;27693;50.506;30.832;2024-01-16T03:52:19;97795.08;;;-2.38;92.01
42003;BME280;27693;50.506;30.832;2024-01-16T03:53:22;97793.49;;;-2.43;92.24
42003;BME280;27693;50.506;30.832;2024-01-16T03:54:25;97788.24;;;-2.36;92.30
42003;BME280;27693;50.506;30.832;2024-01-16T03:55:27;97798.28;;;-2.30;92.18
42003;BME280;27693;50.506;30.832;2024-01-16T03:56:30;97798.28;;;-2.30;92.18
42003;BME280;27693;50.506;30.832;2024-01-16T03:57:33;97791.75;;;-2.41;91.82
42003;BME280;27693;50.506;30.832;2024-01-16T03:58:35;97788.30;;;-2.39;91.90
42003;BME280;27693;50.506;30.832;2024-01-16T03:59:37;97779.80;;;-2.38;91.94
42003;BME280;27693;50.506;30.832;2024-01-16T04:00:41;97782.34;;;-2.38;92.06
42003;BME280;27693;50.506;30.832;2024-01-16T04:01:43;97782.34;;;-2.38;92.10
42003;BME280;27693;50.506;30.832;2024-01-16T04:02:47;97784.17;;;-2.44;91.85
42003;BME280;27693;50.506;30.832;2024-01-16T04:03:50;97788.55;;;-2.49;91.78
42003;BME280;27693;50.506;30.832;2024-01-16T04:04:53;97793.59;;;-2.47;92.37
42003;BME280;27693;50.506;30.832;2024-01-16T04:05:55;97786.66;;;-2.41;92.56
42003;BME280;27693;50.506;30.832;2024-01-16T04:06:58;97780.60;;;-2.36;92.25
42003;BME280;27693;50.506;30.832;2024-01-16T04:08:01;97778.21;;;-2.43;92.01
42003;BME280;27693;50.506;30.832;2024-01-16T04:09:05;97778.21;;;-2.43;92.01
42003;BME280;27693;50.506;30.832;2024-01-16T04:10:08;97772.27;;;-2.43;92.30
42003;BME280;27693;50.506;30.832;2024-01-16T04:11:13;97777.36;;;-2.43;92.17
42003;BME280;27693;50.506;30.832;2024-01-16T04:12:15;97779.03;;;-2.42;92.13
42003;BME280;27693;50.506;30.832;2024-01-16T04:13:17;97774.95;;;-2.48;92.03
42003;BME280;27693;50.506;30.832;2024-01-16T04:14:21;97774.05;;;-2.47;92.29
42003;BME280;27693;50.506;30.832;2024-01-16T04:15:24;97773.27;;;-2.49;92.91
42003;BME280;27693;50.506;30.832;2024-01-16T04:16:26;97775.77;;;-2.47;92.80
42003;BME280;27693;50.506;30.832;2024-01-16T04:17:29;97777.51;;;-2.49;92.67
42003;BME280;27693;50.506;30.832;2024-01-16T04:18:36;97773.88;;;-2.39;93.86
42003;BME280;27693;50.506;30.832;2024-01-16T04:19:43;97783.04;;;-2.32;93.94
42003;BME280;27693;50.506;30.832;2024-01-16T04:20:45;97773.07;;;-2.41;93.17
42003;BME280;27693;50.506;30.832;2024-01-16T04:21:48;97773.17;;;-2.46;92.91
42003;BME280;27693;50.506;30.832;2024-01-16T04:22:50;97772.31;;;-2.45;92.93
42003;BME280;27693;50.506;30.832;2024-01-16T04:23:52;97780.05;;;-2.49;92.90
42003;BME280;27693;50.506;30.832;2024-01-16T04:24:56;97773.33;;;-2.52;92.68
42003;BME280;27693;50.506;30.832;2024-01-16T04:25:58;97774.09;;;-2.48;93.20
42003;BME280;27693;50.506;30.832;2024-01-16T04:27:01;97778.36;;;-2.49;93.03
42003;BME280;27693;50.506;30.832;2024-01-16T04:28:04;97781.16;;;-2.60;93.14
42003;BME280;27693;50.506;30.832;2024-01-16T04:29:07;97781.16;;;-2.60;93.14
42003;BME280;27693;50.506;30.832;2024-01-16T04:30:12;97786.93;;;-2.53;92.94
42003;BME280;27693;50.506;30.832;2024-01-16T04:31:15;97793.84;;;-2.58;92.84
42003;BME280;27693;50.506;30.832;2024-01-16T04:32:19;97789.63;;;-2.59;92.75
42003;BME280;27693;50.506;30.832;2024-01-16T04:33:22;97797.35;;;-2.62;92.97
42003;BME280;27693;50.506;30.832;2024-01-16T04:34:25;97803.27;;;-2.62;93.19
42003;BME280;27693;50.506;30.832;2024-01-16T04:35:27;97800.10;;;-2.71;93.06
42003;BME280;27693;50.506;30.832;2024-01-16T04:36:30;97806.14;;;-2.76;93.37
42003;BME280;27693;50.506;30.832;2024-01-16T04:37:33;97806.10;;;-2.74;93.42
42003;BME280;27693;50.506;30.832;2024-01-16T04:38:35;97801.83;;;-2.72;93.63
42003;BME280;27693;50.506;30.832;2024-01-16T04:39:38;97802.65;;;-2.71;93.49
42003;BME280;27693;50.506;30.832;2024-01-16T04:40:41;97807.64;;;-2.67;93.56
42003;BME280;27693;50.506;30.832;2024-01-16T04:41:53;97798.88;;;-2.55;93.46
42003;BME280;27693;50.506;30.832;2024-01-16T04:42:56;97796.69;;;-2.70;93.40
42003;BME280;27693;50.506;30.832;2024-01-16T04:43:58;97799.14;;;-2.67;93.59
42003;BME280;27693;50.506;30.832;2024-01-16T04:45:00;97799.91;;;-2.64;93.54
42003;BME280;27693;50.506;30.832;2024-01-16T04:46:03;97804.18;;;-2.64;93.52
42003;BME280;27693;50.506;30.832;2024-01-16T04:47:05;97791.39;;;-2.61;93.56
42003;BME280;27693;50.506;30.832;2024-01-16T04:48:08;97802.59;;;-2.68;93.33
42003;BME280;27693;50.506;30.832;2024-01-16T04:49:11;97802.73;;;-2.75;93.24
42003;BME280;27693;50.506;30.832;2024-01-16T04:50:14;97801.97;;;-2.78;93.42
42003;BME280;27693;50.506;30.832;2024-01-16T04:51:16;97805.44;;;-2.82;93.31
42003;BME280;27693;50.506;30.832;2024-01-16T04:52:18;97809.70;;;-2.83;93.54
42003;BME280;27693;50.506;30.832;2024-01-16T04:53:21;97806.20;;;-2.79;94.00
42003;BME280;27693;50.506;30.832;2024-01-16T04:54:23;97812.26;;;-2.84;94.13
42003;BME280;27693;50.506;30.832;2024-01-16T04:55:28;97809.56;;;-2.77;94.29
42003;BME280;27693;50.506;30.832;2024-01-16T04:56:30;97805.23;;;-2.73;94.27
42003;BME280;27693;50.506;30.832;2024-01-16T04:57:33;97808.65;;;-2.74;94.02
42003;BME280;27693;50.506;30.832;2024-01-16T04:58:37;97814.70;;;-2.80;93.74
42003;BME280;27693;50.506;30.832;2024-01-16T04:59:40;97818.01;;;-2.75;93.89
42003;BME280;27693;50.506;30.832;2024-01-16T05:00:43;97812.77;;;-2.68;93.83
42003;BME280;27693;50.506;30.832;2024-01-16T05:01:45;97818.74;;;-2.71;93.40
42003;BME280;27693;50.506;30.832;2024-01-16T05:02:48;97811.15;;;-2.73;93.52
42003;BME280;27693;50.506;30.832;2024-01-16T05:03:51;97806.91;;;-2.72;93.41
42003;BME280;27693;50.506;30.832;2024-01-16T05:04:54;97807.73;;;-2.71;93.63
42003;BME280;27693;50.506;30.832;2024-01-16T05:05:56;97807.73;;;-2.71;93.53
42003;BME280;27693;50.506;30.832;2024-01-16T05:07:00;97812.73;;;-2.67;93.78
42003;BME280;27693;50.506;30.832;2024-01-16T05:08:03;97804.23;;;-2.67;93.45
42003;BME280;27693;50.506;30.832;2024-01-16T05:09:06;97803.56;;;-2.74;93.62
42003;BME280;27693;50.506;30.832;2024-01-16T05:10:12;97814.61;;;-2.75;93.57
42003;BME280;27693;50.506;30.832;2024-01-16T05:11:14;97795.88;;;-2.73;93.63
42003;BME280;27693;50.506;30.832;2024-01-16T05:12:16;97806.00;;;-2.69;93.70
42003;BME280;27693;50.506;30.832;2024-01-16T05:13:19;97805.91;;;-2.65;93.66
42003;BME280;27693;50.506;30.832;2024-01-16T05:14:21;97812.77;;;-2.68;93.22
42003;BME280;27693;50.506;30.832;2024-01-16T05:15:25;97817.92;;;-2.71;93.08
42003;BME280;27693;50.506;30.832;2024-01-16T05:16:28;97811.23;;;-2.76;92.97
42003;BME280;27693;50.506;30.832;2024-01-16T05:17:30;97807.88;;;-2.78;93.11
42003;BME280;27693;50.506;30.832;2024-01-16T05:18:33;97804.47;;;-2.77;93.16
42003;BME280;27693;50.506;30.832;2024-01-16T05:19:36;97811.23;;;-2.76;93.33
42003;BME280;27693;50.506;30.832;2024-01-16T05:20:40;97809.47;;;-2.74;92.98
42003;BME280;27693;50.506;30.832;2024-01-16T05:21:42;97809.47;;;-2.74;92.98
42003;BME280;27693;50.506;30.832;2024-01-16T05:22:45;97814.42;;;-2.67;93.00
42003;BME280;27693;50.506;30.832;2024-01-16T05:23:47;97814.42;;;-2.67;92.74
42003;BME280;27693;50.506;30.832;2024-01-16T05:25:00;97805.71;;;-2.57;92.79
42003;BME280;27693;50.506;30.832;2024-01-16T05:26:05;97807.69;;;-2.68;92.83
42003;BME280;27693;50.506;30.832;2024-01-16T05:27:09;97814.36;;;-2.64;92.79
42003;BME280;27693;50.506;30.832;2024-01-16T05:28:12;97812.77;;;-2.68;92.53
42003;BME280;27693;50.506;30.832;2024-01-16T05:29:18;97811.00;;;-2.66;92.90
42003;BME280;27693;50.506;30.832;2024-01-16T05:30:21;97820.22;;;-2.61;92.78
42003;BME280;27693;50.506;30.832;2024-01-16T05:31:24;97807.53;;;-2.62;92.76